createdAt,value
2023-03-23T15:59:27.233Z,43.88
2023-03-23T16:01:57.852Z,44.07
2023-03-23T16:04:27.233Z,44.10
2023-03-23T16:06:59.216Z,44.55
2023-03-23T16:09:28.328Z,44.34
2023-03-23T16:11:56.675Z,44.77
2023-03-23T16:14:24.900Z,45.23
2023-03-23T16:16:55.926Z,46.11
2023-03-23T16:19:25.584Z,47.56
2023-03-23T16:21:53.911Z,48.79
2023-03-23T16:24:22.127Z,50.52
2023-03-23T16:26:50.366Z,51.65
2023-03-23T16:29:34.375Z,53.51
2023-03-23T16:32:10.303Z,57.28
2023-03-23T16:34:38.961Z,60.41
2023-03-23T16:37:09.442Z,64.48
2023-03-23T16:39:38.143Z,66.47
2023-03-23T16:42:06.884Z,65.32
2023-03-23T16:44:35.432Z,66.24
2023-03-23T16:47:03.529Z,71.01
2023-03-23T16:49:31.598Z,69.78
2023-03-23T16:52:00.002Z,66.15
2023-03-23T16:54:28.425Z,72.76
2023-03-23T16:56:57.361Z,73.36
2023-03-23T16:59:28.437Z,76.23
2023-03-23T17:02:00.703Z,77.47
2023-03-23T17:04:33.800Z,78.59
2023-03-23T17:07:02.092Z,76.56
2023-03-23T17:09:31.076Z,77.24
2023-03-23T17:12:05.671Z,74.81
2023-03-23T17:14:35.912Z,75.34
2023-03-23T17:17:04.569Z,76.31
2023-03-23T17:19:33.050Z,79.27
2023-03-23T17:22:03.246Z,80.54
2023-03-23T17:24:31.876Z,86.18
2023-03-23T17:27:00.951Z,94.87
2023-03-23T17:29:29.153Z,94.69
2023-03-23T17:31:59.516Z,90.59
2023-03-23T17:34:27.794Z,95.52
2023-03-23T17:36:56.128Z,100.00
2023-03-23T17:39:25.302Z,98.49
2023-03-23T17:41:53.519Z,91.98
2023-03-23T17:44:21.695Z,92.34
2023-03-23T17:46:50.000Z,99.73
2023-03-23T17:49:19.021Z,98.77
2023-03-23T17:51:47.117Z,99.93
2023-03-23T17:54:15.169Z,98.95
2023-03-23T17:56:43.428Z,100.00
2023-03-23T17:59:12.528Z,100.00
2023-03-23T18:01:40.968Z,100.00
2023-03-23T18:04:09.108Z,100.00
2023-03-23T18:06:37.223Z,100.00
2023-03-23T18:09:05.685Z,100.00
2023-03-23T18:11:33.664Z,100.00
2023-03-23T18:14:01.914Z,100.00
2023-03-23T18:16:32.348Z,100.00
2023-03-23T18:19:01.041Z,100.00
2023-03-23T18:21:29.570Z,100.00
2023-03-23T18:24:00.072Z,100.00
2023-03-23T18:26:28.955Z,100.00
2023-03-23T18:28:57.685Z,100.00
2023-03-23T18:31:25.965Z,100.00
2023-03-23T18:33:55.020Z,100.00
2023-03-23T18:36:27.232Z,100.00
2023-03-23T18:38:59.806Z,100.00
2023-03-23T18:41:30.462Z,100.00
2023-03-23T18:43:58.495Z,100.00
2023-03-23T18:46:26.752Z,100.00
2023-03-23T18:48:55.590Z,100.00
2023-03-23T18:51:23.977Z,100.00
2023-03-23T18:53:52.187Z,100.00
2023-03-23T18:56:20.518Z,100.00
2023-03-23T18:58:51.169Z,100.00
2023-03-23T19:01:19.736Z,100.00
2023-03-23T19:03:48.505Z,100.00
2023-03-23T19:06:25.658Z,100.00
2023-03-23T19:08:54.886Z,100.00
2023-03-23T19:11:26.115Z,100.00
2023-03-23T19:14:02.361Z,100.00
2023-03-23T19:16:34.020Z,100.00
2023-03-23T19:19:04.500Z,100.00
2023-03-23T19:21:32.850Z,100.00
2023-03-23T19:24:02.637Z,100.00
2023-03-23T19:26:36.264Z,100.00
2023-03-23T19:31:45.727Z,100.00
2023-03-23T19:34:16.866Z,100.00
2023-03-23T19:36:53.812Z,100.00
2023-03-23T19:39:24.010Z,100.00
2023-03-23T19:41:52.601Z,100.00
2023-03-23T19:44:21.057Z,100.00
2023-03-23T19:46:49.330Z,100.00
2023-03-23T19:49:18.533Z,100.00
2023-03-23T19:51:47.054Z,100.00
2023-03-23T19:54:15.392Z,100.00
2023-03-23T19:56:43.604Z,100.00
2023-03-23T19:59:15.055Z,100.00
2023-03-23T20:01:44.375Z,100.00
2023-03-23T20:04:13.206Z,100.00
2023-03-23T20:06:41.459Z,100.00
2023-03-23T20:09:09.644Z,100.00
2023-03-23T20:11:37.856Z,100.00
2023-03-23T20:14:06.095Z,100.00
2023-03-23T20:16:34.894Z,100.00
2023-03-23T20:19:05.411Z,100.00
2023-03-23T20:21:35.353Z,100.00
2023-03-23T20:24:03.538Z,100.00
2023-03-23T20:26:36.863Z,100.00
2023-03-23T20:29:06.214Z,100.00
2023-03-23T20:31:39.814Z,100.00
2023-03-23T20:34:14.356Z,100.00
2023-03-23T20:36:45.334Z,100.00
2023-03-23T20:39:21.406Z,100.00
2023-03-23T20:41:54.456Z,100.00
2023-03-23T20:44:25.621Z,100.00
2023-03-23T20:46:54.072Z,100.00
2023-03-23T20:49:22.715Z,100.00
2023-03-23T20:51:51.996Z,100.00
2023-03-23T20:54:22.156Z,100.00
2023-03-23T20:56:55.997Z,100.00
2023-03-23T20:59:25.702Z,100.00
2023-03-23T21:01:53.946Z,100.00
2023-03-23T21:04:27.591Z,100.00
2023-03-23T21:06:56.073Z,100.00
2023-03-23T21:09:27.366Z,100.00
2023-03-23T21:11:55.396Z,100.00
2023-03-23T21:14:23.909Z,100.00
2023-03-23T21:16:52.534Z,100.00
2023-03-23T21:19:21.406Z,100.00
2023-03-23T21:21:56.627Z,100.00
2023-03-23T21:24:29.650Z,100.00
2023-03-23T21:27:02.786Z,100.00
2023-03-23T21:29:31.189Z,100.00
2023-03-23T21:34:32.145Z,100.00
2023-03-23T21:37:00.315Z,100.00
2023-03-23T21:39:28.678Z,100.00
2023-03-23T21:41:59.791Z,100.00
2023-03-23T21:44:27.742Z,100.00
2023-03-23T21:46:55.728Z,100.00
2023-03-23T21:49:24.890Z,100.00
2023-03-23T21:51:52.877Z,100.00
2023-03-23T21:54:21.086Z,100.00
2023-03-23T21:56:49.088Z,100.00
2023-03-23T21:59:17.996Z,100.00
2023-03-23T22:01:48.206Z,100.00
2023-03-23T22:04:17.197Z,100.00
2023-03-23T22:06:46.081Z,100.00
2023-03-23T22:09:14.263Z,100.00
2023-03-23T22:11:43.039Z,100.00
2023-03-23T22:14:11.193Z,100.00
2023-03-23T22:16:40.107Z,100.00
2023-03-23T22:19:09.591Z,100.00
2023-03-23T22:21:39.235Z,100.00
2023-03-23T22:24:08.662Z,100.00
2023-03-23T22:26:36.942Z,100.00
2023-03-23T22:29:06.453Z,100.00
2023-03-23T22:31:35.591Z,100.00
2023-03-23T22:34:03.745Z,100.00
2023-03-23T22:36:33.405Z,100.00
2023-03-23T22:39:02.564Z,100.00
2023-03-23T22:41:34.235Z,100.00
2023-03-23T22:44:03.836Z,100.00
2023-03-23T22:46:32.351Z,100.00
2023-03-23T22:49:00.686Z,100.00
2023-03-23T22:51:28.828Z,100.00
2023-03-23T22:53:57.149Z,100.00
2023-03-23T22:56:25.423Z,100.00
2023-03-23T22:58:54.716Z,100.00
2023-03-23T23:01:24.189Z,100.00
2023-03-23T23:03:52.991Z,100.00
2023-03-23T23:06:21.271Z,100.00
2023-03-23T23:08:51.940Z,100.00
2023-03-23T23:11:22.152Z,100.00
2023-03-23T23:13:51.090Z,100.00
2023-03-23T23:16:22.365Z,100.00
2023-03-23T23:18:50.860Z,100.00
2023-03-23T23:21:22.045Z,100.00
2023-03-23T23:23:51.822Z,100.00
2023-03-23T23:26:21.003Z,100.00
2023-03-23T23:28:49.272Z,100.00
2023-03-23T23:31:29.381Z,100.00
2023-03-23T23:33:59.299Z,100.00
2023-03-23T23:36:30.111Z,100.00
2023-03-23T23:39:00.525Z,100.00
2023-03-23T23:41:30.874Z,100.00
2023-03-23T23:43:59.642Z,100.00
2023-03-23T23:46:30.575Z,100.00
2023-03-23T23:48:59.948Z,100.00
2023-03-23T23:51:29.223Z,100.00
2023-03-23T23:54:01.592Z,100.00
2023-03-23T23:56:29.923Z,100.00
2023-03-23T23:58:58.720Z,100.00
